Time;durP1;ratioP1;P1;durP2;ratioP2;P2;SDS_P1;SDS_P2;PMS_P1;PMS_P2;Temp;Humidity;BMP_temperature;BMP_pressure;BME280_temperature;BME280_humidity;BME280_pressure;Samples;Min_cycle;Max_cycle;Signal;HPM_P1;HPM_P2
2022/02/10 00:04:29;;;;;;;2.10;2.00;;;18.10;56.50;;;;;;5053107;28;20266;-61
2022/02/10 00:17:32;;;;;;;2.60;2.40;;;18.10;56.50;;;;;;5053275;28;20666;-66
2022/02/10 00:23:08;;;;;;;2.50;2.20;;;18.00;56.50;;;;;;5053847;28;20215;-66
2022/02/10 00:26:12;;;;;;;2.03;1.92;;;18.00;56.50;;;;;;5050111;28;20176;-64
2022/02/10 00:36:36;;;;;;;2.00;1.80;;;18.00;56.60;;;;;;5053460;28;20229;-64
2022/02/10 00:39:24;;;;;;;2.55;1.92;;;17.90;56.50;;;;;;5052531;28;20254;-63
2022/02/10 00:41:50;;;;;;;2.45;2.30;;;17.90;56.50;;;;;;5053213;28;20214;-64
2022/02/10 00:44:15;;;;;;;2.42;2.22;;;17.90;56.50;;;;;;5053195;28;20546;-64
2022/02/10 00:46:41;;;;;;;2.20;2.00;;;17.90;56.50;;;;;;5052787;28;20199;-63
2022/02/10 00:49:08;;;;;;;2.10;2.00;;;17.90;56.50;;;;;;5052979;28;20634;-63
2022/02/10 00:51:33;;;;;;;2.67;2.47;;;17.90;56.50;;;;;;5053148;28;20254;-65
2022/02/10 00:53:59;;;;;;;3.90;2.40;;;17.90;56.50;;;;;;5052397;28;20310;-65
2022/02/10 00:56:24;;;;;;;2.20;2.10;;;17.90;56.50;;;;;;5053094;28;20713;-66
2022/02/10 00:58:59;;;;;;;2.03;1.92;;;17.90;56.50;;;;;;5052517;28;20171;-63
2022/02/10 01:31:19;;;;;;;2.83;2.60;;;17.80;56.50;;;;;;5052856;28;20178;-64
2022/02/10 01:33:45;;;;;;;2.85;2.65;;;17.80;56.40;;;;;;5052762;28;20178;-63
2022/02/10 01:36:10;;;;;;;2.80;2.60;;;17.80;56.40;;;;;;5051910;28;20171;-63
2022/02/10 01:38:36;;;;;;;2.75;2.55;;;17.70;56.40;;;;;;5052831;28;20186;-62
2022/02/10 01:57:48;;;;;;;2.80;2.60;;;17.70;56.40;;;;;;5055686;28;20650;-64
2022/02/10 01:58:05;;;;;;;2.50;2.30;;;17.70;56.40;;;;;;5056765;28;20546;-64
2022/02/10 02:03:21;;;;;;;2.55;2.35;;;17.70;56.40;;;;;;5055465;28;20218;-63
2022/02/10 02:05:52;;;;;;;2.78;2.58;;;17.60;56.40;;;;;;5056567;28;20184;-62
2022/02/10 02:08:25;;;;;;;2.88;2.67;;;17.60;56.40;;;;;;5056146;28;20642;-64
2022/02/10 02:10:50;;;;;;;2.90;2.47;;;17.60;56.40;;;;;;5055670;28;20179;-64
2022/02/10 02:13:16;;;;;;;2.80;2.60;;;17.60;56.40;;;;;;5055885;28;20186;-66
2022/02/10 02:15:41;;;;;;;2.92;2.72;;;17.60;56.40;;;;;;5056045;28;20541;-66
2022/02/10 02:18:07;;;;;;;2.85;2.65;;;17.60;56.40;;;;;;5055302;28;20203;-65
2022/02/10 02:20:32;;;;;;;3.08;2.88;;;17.60;56.40;;;;;;5056077;28;20241;-65
2022/02/10 02:22:58;;;;;;;3.15;2.60;;;17.60;56.40;;;;;;5055930;28;20221;-65
2022/02/10 02:25:23;;;;;;;3.00;2.80;;;17.60;56.40;;;;;;5055166;28;20676;-64
2022/02/10 02:27:52;;;;;;;2.85;2.65;;;17.60;56.40;;;;;;5055933;28;20175;-63
2022/02/10 02:30:41;;;;;;;2.85;2.65;;;17.60;56.40;;;;;;5055034;28;20264;-64
2022/02/10 02:33:34;;;;;;;2.75;2.55;;;17.60;56.40;;;;;;5055693;28;20175;-62
2022/02/10 02:36:26;;;;;;;3.00;2.80;;;17.60;56.40;;;;;;5055418;28;20183;-63
2022/02/10 03:05:38;;;;;;;2.78;2.58;;;17.50;56.30;;;;;;5054667;28;20174;-62
2022/02/10 03:08:12;;;;;;;2.95;2.75;;;17.50;56.30;;;;;;5054885;28;20660;-63
2022/02/10 03:13:03;;;;;;;2.65;2.45;;;17.40;56.30;;;;;;5054257;28;20175;-65
2022/02/10 03:15:41;;;;;;;2.65;2.45;;;17.50;56.30;;;;;;5055143;28;20301;-66
2022/02/10 03:18:21;;;;;;;3.00;2.80;;;17.50;56.30;;;;;;5054746;28;20248;-66
2022/02/10 04:15:00;;;;;;;2.85;2.65;;;17.30;56.20;;;;;;5053452;28;20196;-66
2022/02/10 04:22:38;;;;;;;2.45;2.25;;;17.30;56.20;;;;;;5053254;28;20251;-65
2022/02/10 04:31:01;;;;;;;2.65;2.45;;;17.30;56.20;;;;;;5052005;28;20168;-63
2022/02/10 04:42:42;;;;;;;2.60;2.40;;;17.20;56.20;;;;;;5053017;28;20199;-64
2022/02/10 04:44:35;;;;;;;2.75;2.55;;;17.20;56.10;;;;;;5052044;28;20630;-64
2022/02/10 04:55:27;;;;;;;2.50;2.30;;;17.20;56.10;;;;;;5052336;28;20677;-66
2022/02/10 04:58:15;;;;;;;2.83;2.63;;;17.20;56.10;;;;;;5052045;28;20232;-65
2022/02/10 05:06:55;;;;;;;2.63;2.47;;;17.20;56.10;;;;;;5051552;28;20691;-63
2022/02/10 05:12:28;;;;;;;3.47;2.63;;;17.20;56.10;;;;;;5052044;28;20187;-64
2022/02/10 05:20:45;;;;;;;3.03;2.83;;;17.20;56.10;;;;;;4990087;28;20283;-67
2022/02/10 05:33:54;;;;;;;3.28;3.08;;;17.10;56.10;;;;;;5051477;28;20182;-63
2022/02/10 05:36:23;;;;;;;2.50;2.30;;;17.10;56.80;;;;;;5052154;28;20698;-65
2022/02/10 05:39:01;;;;;;;2.97;2.78;;;17.10;56.10;;;;;;5052341;28;20203;-63
2022/02/10 05:44:30;;;;;;;3.13;2.80;;;17.10;56.20;;;;;;5051889;28;20301;-63
2022/02/10 05:50:30;;;;;;;3.13;2.92;;;17.10;56.10;;;;;;5018246;28;20522;-64
2022/02/10 05:53:14;;;;;;;2.70;2.50;;;17.10;56.10;;;;;;5051959;28;20179;-65
2022/02/10 07:03:59;;;;;;;3.25;2.95;;;16.90;56.20;;;;;;5055001;28;20591;-63
2022/02/10 07:49:54;;;;;;;2.05;1.95;;;17.00;56.40;;;;;;5053808;28;20178;-63
2022/02/10 08:04:12;;;;;;;2.10;1.88;;;17.50;56.00;;;;;;5053539;28;20661;-66
2022/02/10 08:29:39;;;;;;;2.75;1.60;;;18.40;55.70;;;;;;5052327;28;20324;-65
2022/02/10 08:50:23;;;;;;;2.47;1.52;;;18.10;56.70;;;;;;5051857;28;20241;-67
2022/02/10 09:01:37;;;;;;;2.40;1.75;;;17.90;57.00;;;;;;5052710;28;20672;-67
2022/02/10 09:06:27;;;;;;;2.60;1.48;;;17.90;57.10;;;;;;5051614;28;20204;-66
2022/02/10 09:11:44;;;;;;;1.63;1.50;;;17.90;57.10;;;;;;5051951;28;20873;-66
2022/02/10 09:25:49;;;;;;;2.47;1.30;;;18.00;56.90;;;;;;5052344;28;20668;-66
2022/02/10 09:57:53;;;;;;;1.60;1.20;;;17.90;57.00;;;;;;5051661;28;20708;-66
2022/02/10 10:02:41;;;;;;;2.03;1.15;;;17.90;57.10;;;;;;5051433;28;20229;-67
2022/02/10 10:05:50;;;;;;;1.88;1.00;;;17.80;57.10;;;;;;5051689;28;20178;-67
2022/02/10 10:13:43;;;;;;;1.17;1.00;;;17.90;57.10;;;;;;5055262;28;20193;-65
2022/02/10 10:16:38;;;;;;;1.60;1.10;;;17.90;57.60;;;;;;5054392;28;20591;-66
2022/02/10 10:19:16;;;;;;;2.03;1.30;;;17.90;57.10;;;;;;5055186;28;20186;-66
2022/02/10 10:21:50;;;;;;;2.10;1.08;;;17.90;57.00;;;;;;5054551;28;20661;-65
2022/02/10 10:24:39;;;;;;;1.15;0.98;;;17.80;57.00;;;;;;5055525;28;20510;-65
2022/02/10 10:48:06;;;;;;;1.67;1.10;;;17.90;56.90;;;;;;5054734;28;20245;-66
2022/02/10 10:56:45;;;;;;;1.30;1.20;;;17.90;56.90;;;;;;5054116;28;20171;-67
2022/02/10 12:33:25;;;;;;;2.03;1.00;;;17.60;57.20;;;;;;5072462;28;20289;-67
2022/02/10 14:09:12;;;;;;;1.65;0.80;;;17.60;56.90;;;;;;5075633;28;20295;-67
2022/02/10 14:17:02;;;;;;;1.25;0.73;;;17.60;56.70;;;;;;5075239;28;20224;-67
2022/02/10 14:19:39;;;;;;;1.35;0.63;;;17.60;56.70;;;;;;5075479;28;20185;-66
2022/02/10 14:22:11;;;;;;;1.67;0.80;;;17.60;57.30;;;;;;5074494;28;20544;-66
2022/02/10 14:27:21;;;;;;;1.63;0.75;;;17.50;56.70;;;;;;5055197;28;20221;-66
2022/02/10 14:29:47;;;;;;;2.10;1.20;;;17.50;56.70;;;;;;5054565;28;20171;-67
2022/02/10 14:32:15;;;;;;;1.08;0.68;;;17.50;56.80;;;;;;5055120;28;20175;-68
2022/02/10 14:34:40;;;;;;;1.55;0.80;;;17.50;56.80;;;;;;5054386;28;20171;-68
2022/02/10 14:37:27;;;;;;;2.97;0.70;;;17.50;56.90;;;;;;5054590;28;20182;-68
2022/02/10 14:40:03;;;;;;;2.17;1.00;;;17.40;56.80;;;;;;5054700;28;20231;-67
2022/02/10 15:21:11;;;;;;;2.00;0.90;;;18.50;56.00;;;;;;5074415;28;20193;-68
2022/02/10 15:30:52;;;;;;;1.52;0.57;;;19.00;54.90;;;;;;5054194;28;20639;-68
2022/02/10 15:53:10;;;;;;;1.27;0.80;;;19.30;54.30;;;;;;5072874;28;20232;-68
2022/02/10 16:17:03;;;;;;;1.10;0.52;;;19.30;54.20;;;;;;5072538;28;20216;-68
2022/02/10 16:19:30;;;;;;;0.73;0.70;;;19.30;54.20;;;;;;5072591;28;20178;-67
2022/02/10 16:24:57;;;;;;;1.27;0.82;;;19.40;54.20;;;;;;5072284;28;20280;-66
2022/02/10 16:27:28;;;;;;;0.98;0.57;;;19.40;54.10;;;;;;5051250;28;20577;-67
2022/02/10 16:30:02;;;;;;;3.08;0.70;;;19.40;54.20;;;;;;5052329;28;20179;-67
2022/02/10 16:32:28;;;;;;;0.68;0.50;;;19.40;54.10;;;;;;5052594;28;20587;-68
2022/02/10 16:34:55;;;;;;;1.02;0.70;;;19.40;54.10;;;;;;5051624;28;20167;-68
2022/02/10 16:37:21;;;;;;;1.15;0.50;;;19.40;54.10;;;;;;5052704;28;20266;-68
2022/02/10 16:39:48;;;;;;;1.70;0.73;;;19.40;54.00;;;;;;5052414;28;20183;-68
2022/02/10 16:42:14;;;;;;;1.27;0.55;;;19.40;54.00;;;;;;5051104;28;20548;-68
2022/02/10 16:44:40;;;;;;;1.38;0.90;;;19.40;54.00;;;;;;5052532;28;20170;-68
2022/02/10 16:47:06;;;;;;;0.63;0.40;;;19.40;54.00;;;;;;5052153;28;20653;-68
2022/02/10 16:49:32;;;;;;;1.83;0.75;;;19.40;54.00;;;;;;5051648;28;20214;-67
2022/02/10 16:51:58;;;;;;;1.67;0.90;;;19.40;54.00;;;;;;5051977;28;20221;-67
2022/02/10 17:02:10;;;;;;;1.20;0.60;;;19.40;54.70;;;;;;5052203;28;20199;-68
2022/02/10 17:16:25;;;;;;;2.13;0.60;;;19.40;54.10;;;;;;5051792;28;20178;-67
2022/02/10 17:20:49;;;;;;;1.00;0.70;;;19.30;54.10;;;;;;5051923;28;20345;-67
2022/02/10 17:28:48;;;;;;;1.85;0.60;;;19.40;54.20;;;;;;5042687;28;20186;-67
2022/02/10 17:34:03;;;;;;;0.70;0.60;;;19.40;54.10;;;;;;5071655;28;20171;-68
2022/02/10 17:36:33;;;;;;;0.63;0.60;;;19.40;54.10;;;;;;5071499;28;20590;-68
2022/02/10 17:42:07;;;;;;;0.68;0.50;;;19.40;54.00;;;;;;5071565;28;20640;-68
2022/02/10 17:51:26;;;;;;;0.68;0.60;;;19.20;54.10;;;;;;5071323;28;20177;-69
2022/02/10 17:52:37;;;;;;;2.63;0.85;;;19.10;54.40;;;;;;5016385;28;20192;-68
2022/02/10 17:55:05;;;;;;;3.35;1.17;;;19.10;54.70;;;;;;5071194;28;20226;-67
2022/02/10 17:57:31;;;;;;;2.30;1.05;;;19.10;54.70;;;;;;5056897;28;20183;-72
2022/02/10 17:59:56;;;;;;;3.83;0.80;;;19.00;54.80;;;;;;5050737;28;20179;-69
2022/02/10 18:02:22;;;;;;;1.95;0.80;;;19.10;54.90;;;;;;5051625;28;20215;-73
2022/02/10 18:04:48;;;;;;;1.42;0.82;;;19.10;54.90;;;;;;5051323;28;20175;-68
2022/02/10 18:07:13;;;;;;;1.50;0.70;;;19.10;54.90;;;;;;5050566;28;20172;-65
2022/02/10 18:15:16;;;;;;;4.47;0.73;;;19.20;54.90;;;;;;5051134;28;20166;-66
2022/02/10 18:17:51;;;;;;;2.42;0.85;;;19.20;54.90;;;;;;5051328;28;20209;-66
2022/02/10 18:20:23;;;;;;;5.70;1.33;;;19.10;54.80;;;;;;5050102;28;20228;-67
2022/02/10 18:25:27;;;;;;;5.65;1.50;;;19.00;54.90;;;;;;5057735;28;20190;-64
2022/02/10 18:33:27;;;;;;;3.45;0.88;;;19.00;55.10;;;;;;5074955;28;20231;-65
2022/02/10 19:08:36;;;;;;;1.98;0.68;;;18.90;55.10;;;;;;5074835;28;20360;-66
2022/02/10 19:11:07;;;;;;;2.35;0.68;;;18.90;55.10;;;;;;5073569;28;20170;-66
2022/02/10 19:13:32;;;;;;;2.25;0.75;;;18.90;55.10;;;;;;5074770;28;20182;-66
2022/02/10 19:15:58;;;;;;;2.72;0.90;;;19.00;55.00;;;;;;5073411;28;20183;-67
2022/02/10 19:18:23;;;;;;;2.50;0.80;;;19.00;54.90;;;;;;5074401;28;20174;-67
2022/02/10 19:20:49;;;;;;;2.10;0.90;;;19.00;54.90;;;;;;5074148;28;20181;-63
2022/02/10 19:23:14;;;;;;;2.00;0.85;;;18.90;54.80;;;;;;5073349;28;20263;-65
2022/02/10 19:25:40;;;;;;;2.03;0.85;;;18.90;54.90;;;;;;5064209;28;20648;-63
2022/02/10 19:28:06;;;;;;;3.40;0.90;;;18.90;55.10;;;;;;5053877;28;20187;-62
2022/02/10 19:30:35;;;;;;;2.28;0.90;;;18.80;55.10;;;;;;5053402;28;20194;-63
2022/02/10 19:33:03;;;;;;;0.95;0.60;;;18.80;55.20;;;;;;5053744;28;20167;-60
2022/02/10 19:35:30;;;;;;;1.45;0.98;;;18.90;55.30;;;;;;5054064;28;20183;-61
2022/02/10 19:38:00;;;;;;;5.07;1.20;;;18.90;55.30;;;;;;5053120;28;20201;-62
2022/02/10 19:40:26;;;;;;;1.92;0.80;;;18.90;55.20;;;;;;5052884;28;20241;-62
2022/02/10 19:42:54;;;;;;;2.22;1.25;;;18.90;55.20;;;;;;5053761;28;20240;-70
2022/02/10 19:45:19;;;;;;;4.45;1.27;;;18.90;55.30;;;;;;5053090;28;20175;-64
2022/02/10 19:47:45;;;;;;;2.33;0.85;;;18.90;55.20;;;;;;5053709;28;20179;-62
2022/02/10 19:50:15;;;;;;;2.28;0.93;;;18.90;55.30;;;;;;5053644;28;20715;-64
2022/02/10 19:52:43;;;;;;;1.95;0.80;;;18.90;55.20;;;;;;5053111;28;20187;-64
2022/02/10 19:55:12;;;;;;;5.05;1.00;;;18.90;55.30;;;;;;5053225;28;20234;-64
2022/02/10 19:57:40;;;;;;;1.83;0.63;;;18.90;55.30;;;;;;5053603;28;20229;-63
2022/02/10 20:00:11;;;;;;;2.17;0.85;;;18.90;55.40;;;;;;5052574;28;20593;-62
2022/02/10 20:02:38;;;;;;;3.47;0.70;;;18.80;55.50;;;;;;5053432;28;20227;-62
2022/02/10 20:05:04;;;;;;;3.85;0.90;;;18.90;55.50;;;;;;5052579;28;20167;-62
2022/02/10 20:07:32;;;;;;;1.67;0.95;;;18.90;55.50;;;;;;5053184;28;20183;-63
2022/02/10 20:09:57;;;;;;;1.90;1.00;;;18.90;55.40;;;;;;5052791;28;20236;-66
2022/02/10 20:12:23;;;;;;;3.55;0.80;;;19.00;55.40;;;;;;5052365;28;20183;-69
2022/02/10 20:14:51;;;;;;;1.55;0.90;;;18.90;55.20;;;;;;5052901;28;20174;-66
2022/02/10 20:17:17;;;;;;;1.63;0.60;;;19.00;55.30;;;;;;5052940;28;20305;-66
2022/02/10 20:19:42;;;;;;;1.88;0.80;;;18.90;55.30;;;;;;5052390;28;20290;-64
2022/02/10 20:22:10;;;;;;;2.05;1.40;;;18.90;55.30;;;;;;5052474;28;20219;-66
2022/02/10 20:24:36;;;;;;;0.75;0.75;;;18.90;55.30;;;;;;5053868;28;20255;-63
2022/02/10 20:27:02;;;;;;;1.70;0.85;;;18.90;55.40;;;;;;5071801;28;20204;-61
2022/02/10 20:29:28;;;;;;;1.73;0.93;;;18.80;55.40;;;;;;5072494;28;20214;-63
2022/02/10 20:31:53;;;;;;;2.03;0.77;;;18.80;56.10;;;;;;5072549;28;20171;-61
2022/02/10 20:34:19;;;;;;;1.88;1.05;;;18.90;55.60;;;;;;5072154;28;20236;-62
2022/02/10 20:36:44;;;;;;;3.35;0.93;;;18.90;55.40;;;;;;5072843;28;20170;-61
2022/02/10 20:39:10;;;;;;;1.70;0.80;;;18.90;55.40;;;;;;5072484;28;20594;-63
2022/02/10 20:41:37;;;;;;;1.20;0.90;;;18.90;55.40;;;;;;5071849;28;20259;-61
2022/02/10 20:44:03;;;;;;;2.10;1.00;;;18.90;55.50;;;;;;5072049;28;20182;-62
2022/02/10 20:46:30;;;;;;;1.35;0.90;;;18.90;55.30;;;;;;5072284;28;20597;-63
2022/02/10 20:48:56;;;;;;;4.55;1.10;;;18.90;55.40;;;;;;5071396;28;20186;-62
2022/02/10 20:51:22;;;;;;;1.30;0.75;;;18.90;55.40;;;;;;5072172;28;20189;-62
2022/02/10 20:53:48;;;;;;;2.25;0.98;;;18.80;55.50;;;;;;5072101;28;20218;-63
2022/02/10 20:56:14;;;;;;;2.20;0.90;;;18.80;55.50;;;;;;5071347;28;20515;-63
2022/02/10 20:58:41;;;;;;;1.88;1.20;;;18.80;55.50;;;;;;5072000;28;20657;-60
2022/02/10 21:01:10;;;;;;;1.80;0.70;;;18.80;55.50;;;;;;5071405;28;20189;-61
2022/02/10 21:03:36;;;;;;;2.13;1.10;;;18.80;55.50;;;;;;5071584;28;20210;-60
2022/02/10 21:06:27;;;;;;;1.02;0.77;;;18.80;55.50;;;;;;5072011;28;20182;-62
2022/02/10 21:09:02;;;;;;;3.05;0.80;;;18.80;55.60;;;;;;5070777;28;20179;-65
2022/02/10 21:11:29;;;;;;;2.92;1.20;;;18.80;55.40;;;;;;5073101;28;20494;-70
2022/02/10 21:13:56;;;;;;;5.97;1.20;;;18.80;55.50;;;;;;5072128;28;20175;-65
2022/02/10 21:16:23;;;;;;;3.33;1.08;;;18.80;55.50;;;;;;5071858;28;20159;-66
2022/02/10 21:18:49;;;;;;;4.95;1.20;;;18.70;55.50;;;;;;5072232;28;20178;-63
2022/02/10 21:21:17;;;;;;;1.98;1.00;;;18.70;55.70;;;;;;5071512;28;20170;-65
2022/02/10 21:26:19;;;;;;;1.92;0.82;;;18.70;55.70;;;;;;5056716;28;20517;-64
2022/02/10 21:28:46;;;;;;;2.28;1.42;;;18.70;55.70;;;;;;5052158;28;20257;-62
2022/02/10 21:31:12;;;;;;;3.05;1.05;;;18.70;55.70;;;;;;5050965;28;20177;-61
2022/02/10 21:38:55;;;;;;;4.68;1.20;;;18.70;55.70;;;;;;5051371;28;20549;-63
2022/02/10 21:42:11;;;;;;;4.00;1.30;;;18.70;55.70;;;;;;5052000;28;20215;-64
2022/02/10 21:47:34;;;;;;;3.00;1.10;;;18.70;55.80;;;;;;5050965;28;20194;-62
2022/02/10 22:00:49;;;;;;;2.85;1.20;;;18.50;56.10;;;;;;5051730;28;20579;-61
2022/02/10 22:11:00;;;;;;;1.90;0.98;;;18.40;56.80;;;;;;5055631;28;20250;-66
2022/02/10 22:19:05;;;;;;;2.47;1.05;;;18.30;56.10;;;;;;5055480;28;20316;-65
2022/02/10 22:21:48;;;;;;;5.10;1.23;;;18.30;56.00;;;;;;5055833;28;20703;-66
2022/02/10 22:24:15;;;;;;;3.10;1.13;;;18.30;56.10;;;;;;5055216;28;20183;-64
2022/02/10 22:26:42;;;;;;;2.38;1.15;;;18.20;56.10;;;;;;5073268;28;20170;-64
2022/02/10 22:29:19;;;;;;;2.95;1.00;;;18.20;56.10;;;;;;5075099;28;20669;-62
2022/02/10 22:32:26;;;;;;;2.08;1.35;;;18.20;56.10;;;;;;5055561;28;20186;-62
2022/02/10 22:34:39;;;;;;;3.08;1.10;;;18.10;56.00;;;;;;5051672;28;20191;-62
2022/02/10 22:37:07;;;;;;;1.98;1.25;;;18.10;56.00;;;;;;5055651;28;20171;-62
2022/02/10 22:39:38;;;;;;;1.38;1.00;;;18.10;56.00;;;;;;5055474;28;20172;-64
2022/02/10 22:42:04;;;;;;;3.08;1.10;;;18.00;55.80;;;;;;5054471;28;20207;-63
2022/02/10 22:44:29;;;;;;;4.22;1.40;;;18.00;55.90;;;;;;5055282;28;20596;-64
2022/02/10 22:46:55;;;;;;;3.55;1.40;;;18.00;55.90;;;;;;5054292;28;20696;-63
2022/02/10 22:49:20;;;;;;;1.75;1.13;;;18.00;56.00;;;;;;5055714;28;20179;-64
2022/02/10 22:51:46;;;;;;;2.90;1.00;;;18.00;56.00;;;;;;5055590;28;20210;-64
2022/02/10 22:54:13;;;;;;;2.30;1.20;;;17.90;55.90;;;;;;5054348;28;20281;-64
2022/02/10 22:56:39;;;;;;;2.55;1.20;;;17.90;55.90;;;;;;5055485;28;20175;-63
2022/02/10 22:59:06;;;;;;;2.15;1.10;;;17.90;55.80;;;;;;5055139;28;20181;-62
2022/02/10 23:01:31;;;;;;;1.90;1.30;;;17.90;55.90;;;;;;5054476;28;20215;-63
2022/02/10 23:03:57;;;;;;;1.73;1.10;;;17.90;55.80;;;;;;5055144;28;20194;-62
2022/02/10 23:06:22;;;;;;;1.67;1.20;;;17.80;55.80;;;;;;5055345;28;20669;-62
2022/02/10 23:08:48;;;;;;;2.85;1.52;;;17.80;55.80;;;;;;5054336;28;20167;-64
2022/02/10 23:11:15;;;;;;;5.88;1.35;;;17.80;55.80;;;;;;5054750;28;20167;-67
2022/02/10 23:13:45;;;;;;;3.28;1.40;;;17.80;55.80;;;;;;5054866;28;20199;-67
2022/02/10 23:16:12;;;;;;;1.77;1.13;;;17.80;55.80;;;;;;5053906;28;20198;-66
2022/02/10 23:18:38;;;;;;;2.40;1.40;;;17.80;55.80;;;;;;5054754;28;20182;-65
2022/02/10 23:21:05;;;;;;;2.30;1.30;;;17.80;55.80;;;;;;5054595;28;20171;-64
2022/02/10 23:23:31;;;;;;;1.42;1.20;;;17.70;55.70;;;;;;5054205;28;20198;-64
2022/02/10 23:25:58;;;;;;;2.38;1.40;;;17.70;55.70;;;;;;5054518;28;20528;-65
2022/02/10 23:28:45;;;;;;;1.40;1.30;;;17.70;55.70;;;;;;5054709;28;20183;-64
2022/02/10 23:31:12;;;;;;;2.72;1.27;;;17.70;55.70;;;;;;5053541;28;20203;-64
2022/02/10 23:33:40;;;;;;;2.00;1.27;;;17.60;55.70;;;;;;5054673;28;20194;-62
2022/02/10 23:38:45;;;;;;;1.77;0.95;;;17.60;55.60;;;;;;5054543;28;20205;-63
2022/02/10 23:43:45;;;;;;;2.13;1.40;;;17.60;55.60;;;;;;5053917;28;20280;-64
2022/02/10 23:46:11;;;;;;;3.47;1.50;;;17.60;55.60;;;;;;5054276;28;20175;-64
2022/02/10 23:48:37;;;;;;;1.23;1.13;;;17.60;55.60;;;;;;5054230;28;20182;-64
2022/02/10 23:51:03;;;;;;;2.40;1.20;;;17.60;55.60;;;;;;5053108;28;20233;-65
2022/02/10 23:53:29;;;;;;;2.58;1.02;;;17.60;55.70;;;;;;5054075;28;20258;-65
2022/02/10 23:55:55;;;;;;;1.92;1.17;;;17.50;55.60;;;;;;5054015;28;20202;-65
